sensor_id;sensor_type;location;lat;lon;timestamp;temperature;humidity
51500;DHT22;39101;53.478;6.158;2022-10-23T00:01:30;10.90;99.90
51500;DHT22;39101;53.478;6.158;2022-10-23T00:03:59;10.90;99.90
51500;DHT22;39101;53.478;6.158;2022-10-23T00:06:27;11.00;99.90
51500;DHT22;39101;53.478;6.158;2022-10-23T00:08:53;11.00;99.90
51500;DHT22;39101;53.478;6.158;2022-10-23T00:11:22;11.00;99.90
51500;DHT22;39101;53.478;6.158;2022-10-23T00:13:48;10.90;99.90
51500;DHT22;39101;53.478;6.158;2022-10-23T00:16:14;10.90;99.90
51500;DHT22;39101;53.478;6.158;2022-10-23T00:18:40;10.90;99.90
51500;DHT22;39101;53.478;6.158;2022-10-23T00:21:08;10.90;99.90
51500;DHT22;39101;53.478;6.158;2022-10-23T00:23:34;11.00;99.90
51500;DHT22;39101;53.478;6.158;2022-10-23T00:26:00;11.00;99.90
51500;DHT22;39101;53.478;6.158;2022-10-23T00:28:26;11.00;99.90
51500;DHT22;39101;53.478;6.158;2022-10-23T00:30:52;11.00;99.90
51500;DHT22;39101;53.478;6.158;2022-10-23T00:33:17;11.00;99.90
51500;DHT22;39101;53.478;6.158;2022-10-23T00:35:43;11.10;99.90
51500;DHT22;39101;53.478;6.158;2022-10-23T00:38:10;10.90;99.90
51500;DHT22;39101;53.478;6.158;2022-10-23T00:40:36;11.00;99.90
51500;DHT22;39101;53.478;6.158;2022-10-23T00:43:02;10.90;99.90
51500;DHT22;39101;53.478;6.158;2022-10-23T00:45:30;11.00;99.90
51500;DHT22;39101;53.478;6.158;2022-10-23T00:48:01;10.90;99.90
51500;DHT22;39101;53.478;6.158;2022-10-23T00:50:29;11.00;99.90
51500;DHT22;39101;53.478;6.158;2022-10-23T00:52:56;11.00;99.90
51500;DHT22;39101;53.478;6.158;2022-10-23T00:55:25;11.00;99.90
51500;DHT22;39101;53.478;6.158;2022-10-23T00:57:51;10.90;99.90
51500;DHT22;39101;53.478;6.158;2022-10-23T01:00:39;11.10;99.90
51500;DHT22;39101;53.478;6.158;2022-10-23T01:03:05;11.10;99.90
51500;DHT22;39101;53.478;6.158;2022-10-23T01:05:40;11.00;99.90
51500;DHT22;39101;53.478;6.158;2022-10-23T01:08:33;11.00;99.90
51500;DHT22;39101;53.478;6.158;2022-10-23T01:11:16;10.90;99.90
51500;DHT22;39101;53.478;6.158;2022-10-23T01:25:06;10.80;99.90
51500;DHT22;39101;53.478;6.158;2022-10-23T01:27:40;10.70;99.90
51500;DHT22;39101;53.478;6.158;2022-10-23T01:30:11;10.70;99.90
51500;DHT22;39101;53.478;6.158;2022-10-23T01:33:06;10.70;99.90
51500;DHT22;39101;53.478;6.158;2022-10-23T01:38:21;10.60;99.90
51500;DHT22;39101;53.478;6.158;2022-10-23T01:40:59;10.60;99.90
51500;DHT22;39101;53.478;6.158;2022-10-23T01:43:59;10.70;99.90
51500;DHT22;39101;53.478;6.158;2022-10-23T01:46:26;10.70;99.90
51500;DHT22;39101;53.478;6.158;2022-10-23T01:48:54;10.60;99.90
51500;DHT22;39101;53.478;6.158;2022-10-23T01:51:23;10.60;99.90
51500;DHT22;39101;53.478;6.158;2022-10-23T01:53:51;10.50;99.90
51500;DHT22;39101;53.478;6.158;2022-10-23T01:56:22;10.50;99.90
51500;DHT22;39101;53.478;6.158;2022-10-23T01:58:51;10.60;99.90
51500;DHT22;39101;53.478;6.158;2022-10-23T02:01:19;10.50;99.90
51500;DHT22;39101;53.478;6.158;2022-10-23T02:03:47;10.40;99.90
51500;DHT22;39101;53.478;6.158;2022-10-23T02:06:13;10.50;99.90
51500;DHT22;39101;53.478;6.158;2022-10-23T02:08:39;10.40;99.90
51500;DHT22;39101;53.478;6.158;2022-10-23T02:11:08;10.50;99.90
51500;DHT22;39101;53.478;6.158;2022-10-23T02:13:51;10.50;99.90
51500;DHT22;39101;53.478;6.158;2022-10-23T02:16:38;10.50;99.90
51500;DHT22;39101;53.478;6.158;2022-10-23T02:19:23;10.50;99.90
51500;DHT22;39101;53.478;6.158;2022-10-23T02:22:07;10.50;99.90
51500;DHT22;39101;53.478;6.158;2022-10-23T02:24:38;10.60;99.90
51500;DHT22;39101;53.478;6.158;2022-10-23T02:27:19;10.60;99.90
51500;DHT22;39101;53.478;6.158;2022-10-23T02:29:47;10.50;99.90
51500;DHT22;39101;53.478;6.158;2022-10-23T02:32:14;10.60;99.90
51500;DHT22;39101;53.478;6.158;2022-10-23T02:34:42;10.70;99.90
51500;DHT22;39101;53.478;6.158;2022-10-23T02:37:07;10.60;99.90
51500;DHT22;39101;53.478;6.158;2022-10-23T02:39:33;10.60;99.90
51500;DHT22;39101;53.478;6.158;2022-10-23T02:42:02;10.70;99.90
51500;DHT22;39101;53.478;6.158;2022-10-23T02:44:33;10.70;99.90
51500;DHT22;39101;53.478;6.158;2022-10-23T02:49:56;10.70;99.90
51500;DHT22;39101;53.478;6.158;2022-10-23T02:58:25;10.80;99.90
51500;DHT22;39101;53.478;6.158;2022-10-23T03:00:55;10.80;99.90
51500;DHT22;39101;53.478;6.158;2022-10-23T03:03:30;10.80;99.90
51500;DHT22;39101;53.478;6.158;2022-10-23T03:05:57;10.90;99.90
51500;DHT22;39101;53.478;6.158;2022-10-23T03:08:23;10.80;99.90
51500;DHT22;39101;53.478;6.158;2022-10-23T03:10:50;10.80;99.90
51500;DHT22;39101;53.478;6.158;2022-10-23T03:13:16;10.90;99.90
51500;DHT22;39101;53.478;6.158;2022-10-23T03:15:42;10.90;99.90
51500;DHT22;39101;53.478;6.158;2022-10-23T03:18:08;10.90;99.90
51500;DHT22;39101;53.478;6.158;2022-10-23T03:20:33;11.00;99.90
51500;DHT22;39101;53.478;6.158;2022-10-23T03:22:59;11.00;99.90
51500;DHT22;39101;53.478;6.158;2022-10-23T03:25:25;10.90;99.90
51500;DHT22;39101;53.478;6.158;2022-10-23T03:27:50;10.90;99.90
51500;DHT22;39101;53.478;6.158;2022-10-23T03:30:16;10.90;99.90
51500;DHT22;39101;53.478;6.158;2022-10-23T03:32:42;10.90;99.90
51500;DHT22;39101;53.478;6.158;2022-10-23T03:35:08;11.00;99.90
51500;DHT22;39101;53.478;6.158;2022-10-23T03:37:33;11.00;99.90
51500;DHT22;39101;53.478;6.158;2022-10-23T03:39:59;11.00;99.90
51500;DHT22;39101;53.478;6.158;2022-10-23T03:42:25;10.90;99.90
51500;DHT22;39101;53.478;6.158;2022-10-23T03:44:50;11.20;99.90
51500;DHT22;39101;53.478;6.158;2022-10-23T03:47:16;10.90;99.90
51500;DHT22;39101;53.478;6.158;2022-10-23T03:49:42;11.10;99.90
51500;DHT22;39101;53.478;6.158;2022-10-23T03:52:07;10.90;99.90
51500;DHT22;39101;53.478;6.158;2022-10-23T03:54:34;11.00;99.90
51500;DHT22;39101;53.478;6.158;2022-10-23T03:57:00;10.90;99.90
51500;DHT22;39101;53.478;6.158;2022-10-23T03:59:26;11.00;99.90
51500;DHT22;39101;53.478;6.158;2022-10-23T04:01:53;11.00;99.90
51500;DHT22;39101;53.478;6.158;2022-10-23T04:04:19;11.00;99.90
51500;DHT22;39101;53.478;6.158;2022-10-23T04:06:45;10.90;99.90
51500;DHT22;39101;53.478;6.158;2022-10-23T04:09:10;10.90;99.90
51500;DHT22;39101;53.478;6.158;2022-10-23T04:11:36;10.80;99.90
51500;DHT22;39101;53.478;6.158;2022-10-23T04:14:02;10.90;99.90
51500;DHT22;39101;53.478;6.158;2022-10-23T04:16:27;10.80;99.90
51500;DHT22;39101;53.478;6.158;2022-10-23T04:18:53;10.80;99.90
51500;DHT22;39101;53.478;6.158;2022-10-23T04:21:19;10.80;99.90
51500;DHT22;39101;53.478;6.158;2022-10-23T04:23:44;10.70;99.90
51500;DHT22;39101;53.478;6.158;2022-10-23T04:26:10;10.80;99.90
51500;DHT22;39101;53.478;6.158;2022-10-23T04:28:36;10.80;99.90
51500;DHT22;39101;53.478;6.158;2022-10-23T04:31:02;10.80;99.90
51500;DHT22;39101;53.478;6.158;2022-10-23T04:33:27;10.70;99.90
51500;DHT22;39101;53.478;6.158;2022-10-23T04:35:53;10.90;99.90
51500;DHT22;39101;53.478;6.158;2022-10-23T04:38:19;10.80;99.90
51500;DHT22;39101;53.478;6.158;2022-10-23T04:40:44;10.70;99.90
51500;DHT22;39101;53.478;6.158;2022-10-23T04:43:10;10.70;99.90
51500;DHT22;39101;53.478;6.158;2022-10-23T04:45:36;10.80;99.90
51500;DHT22;39101;53.478;6.158;2022-10-23T04:48:01;10.80;99.90
51500;DHT22;39101;53.478;6.158;2022-10-23T04:50:27;10.80;99.90
51500;DHT22;39101;53.478;6.158;2022-10-23T04:52:54;10.80;99.90
51500;DHT22;39101;53.478;6.158;2022-10-23T04:55:20;10.80;99.90
51500;DHT22;39101;53.478;6.158;2022-10-23T04:57:46;10.80;99.90
51500;DHT22;39101;53.478;6.158;2022-10-23T05:00:13;10.80;99.90
51500;DHT22;39101;53.478;6.158;2022-10-23T05:02:39;10.80;99.90
51500;DHT22;39101;53.478;6.158;2022-10-23T05:05:06;10.90;99.90
51500;DHT22;39101;53.478;6.158;2022-10-23T05:07:32;10.80;99.90
51500;DHT22;39101;53.478;6.158;2022-10-23T05:09:58;10.80;99.90
51500;DHT22;39101;53.478;6.158;2022-10-23T05:12:24;10.90;99.90
51500;DHT22;39101;53.478;6.158;2022-10-23T05:14:51;10.90;99.90
51500;DHT22;39101;53.478;6.158;2022-10-23T05:17:31;10.90;99.90
51500;DHT22;39101;53.478;6.158;2022-10-23T05:20:00;10.80;99.90
51500;DHT22;39101;53.478;6.158;2022-10-23T05:22:30;10.90;99.90
51500;DHT22;39101;53.478;6.158;2022-10-23T05:24:56;10.90;99.90
51500;DHT22;39101;53.478;6.158;2022-10-23T05:27:22;10.80;99.90
51500;DHT22;39101;53.478;6.158;2022-10-23T05:29:48;10.90;99.90
51500;DHT22;39101;53.478;6.158;2022-10-23T05:32:14;10.80;99.90
51500;DHT22;39101;53.478;6.158;2022-10-23T05:34:41;10.80;99.90
51500;DHT22;39101;53.478;6.158;2022-10-23T05:37:09;10.80;99.90
51500;DHT22;39101;53.478;6.158;2022-10-23T05:39:35;10.80;99.90
51500;DHT22;39101;53.478;6.158;2022-10-23T05:42:01;10.80;99.90
51500;DHT22;39101;53.478;6.158;2022-10-23T05:44:27;10.80;99.90
51500;DHT22;39101;53.478;6.158;2022-10-23T05:46:52;10.90;99.90
51500;DHT22;39101;53.478;6.158;2022-10-23T05:49:18;10.90;99.90
51500;DHT22;39101;53.478;6.158;2022-10-23T05:51:43;10.80;99.90
51500;DHT22;39101;53.478;6.158;2022-10-23T05:54:09;10.80;99.90
51500;DHT22;39101;53.478;6.158;2022-10-23T05:56:36;10.80;99.90
51500;DHT22;39101;53.478;6.158;2022-10-23T05:59:03;11.00;99.90
51500;DHT22;39101;53.478;6.158;2022-10-23T06:01:29;10.90;99.90
51500;DHT22;39101;53.478;6.158;2022-10-23T06:03:55;11.00;99.90
51500;DHT22;39101;53.478;6.158;2022-10-23T06:06:21;10.80;99.90
51500;DHT22;39101;53.478;6.158;2022-10-23T06:08:47;10.90;99.90
51500;DHT22;39101;53.478;6.158;2022-10-23T06:11:14;10.90;99.90
51500;DHT22;39101;53.478;6.158;2022-10-23T06:13:43;10.90;99.90
51500;DHT22;39101;53.478;6.158;2022-10-23T06:16:21;11.00;99.90
51500;DHT22;39101;53.478;6.158;2022-10-23T06:18:47;10.90;99.90
51500;DHT22;39101;53.478;6.158;2022-10-23T06:21:13;11.00;99.90
51500;DHT22;39101;53.478;6.158;2022-10-23T06:23:40;10.90;99.90
51500;DHT22;39101;53.478;6.158;2022-10-23T06:26:08;10.90;99.90
51500;DHT22;39101;53.478;6.158;2022-10-23T06:28:34;11.00;99.90
51500;DHT22;39101;53.478;6.158;2022-10-23T06:31:04;10.90;99.90
51500;DHT22;39101;53.478;6.158;2022-10-23T06:33:30;10.90;99.90
51500;DHT22;39101;53.478;6.158;2022-10-23T06:35:56;11.00;99.90
51500;DHT22;39101;53.478;6.158;2022-10-23T06:38:21;11.00;99.90
51500;DHT22;39101;53.478;6.158;2022-10-23T06:40:56;11.00;99.90
51500;DHT22;39101;53.478;6.158;2022-10-23T06:43:21;11.10;99.90
51500;DHT22;39101;53.478;6.158;2022-10-23T06:45:47;11.10;99.90
51500;DHT22;39101;53.478;6.158;2022-10-23T06:48:14;11.10;99.90
51500;DHT22;39101;53.478;6.158;2022-10-23T06:50:40;11.10;99.90
51500;DHT22;39101;53.478;6.158;2022-10-23T06:53:06;11.10;99.90
51500;DHT22;39101;53.478;6.158;2022-10-23T06:55:32;11.10;99.90
51500;DHT22;39101;53.478;6.158;2022-10-23T06:57:58;11.10;99.90
51500;DHT22;39101;53.478;6.158;2022-10-23T07:00:24;11.00;99.90
51500;DHT22;39101;53.478;6.158;2022-10-23T07:02:50;11.10;99.90
51500;DHT22;39101;53.478;6.158;2022-10-23T07:05:16;11.10;99.90
51500;DHT22;39101;53.478;6.158;2022-10-23T07:07:41;11.10;99.90
51500;DHT22;39101;53.478;6.158;2022-10-23T07:10:07;11.20;99.90
51500;DHT22;39101;53.478;6.158;2022-10-23T07:12:33;11.10;99.90
51500;DHT22;39101;53.478;6.158;2022-10-23T07:14:59;11.20;99.90
51500;DHT22;39101;53.478;6.158;2022-10-23T07:17:24;11.30;99.90
51500;DHT22;39101;53.478;6.158;2022-10-23T07:19:50;11.30;99.90
51500;DHT22;39101;53.478;6.158;2022-10-23T07:22:16;11.30;99.90
51500;DHT22;39101;53.478;6.158;2022-10-23T07:24:41;11.30;99.90
51500;DHT22;39101;53.478;6.158;2022-10-23T07:27:07;11.40;99.90
51500;DHT22;39101;53.478;6.158;2022-10-23T07:29:33;11.40;99.90
51500;DHT22;39101;53.478;6.158;2022-10-23T07:31:59;11.30;99.90
51500;DHT22;39101;53.478;6.158;2022-10-23T07:34:26;11.40;99.90
51500;DHT22;39101;53.478;6.158;2022-10-23T07:36:52;11.30;99.90
51500;DHT22;39101;53.478;6.158;2022-10-23T07:39:19;11.30;99.90
51500;DHT22;39101;53.478;6.158;2022-10-23T07:41:47;11.40;99.90
51500;DHT22;39101;53.478;6.158;2022-10-23T07:44:13;11.30;99.90
51500;DHT22;39101;53.478;6.158;2022-10-23T07:46:39;11.40;99.90
51500;DHT22;39101;53.478;6.158;2022-10-23T07:49:04;11.40;99.90
51500;DHT22;39101;53.478;6.158;2022-10-23T07:51:30;11.50;99.90
51500;DHT22;39101;53.478;6.158;2022-10-23T07:53:56;11.40;99.90
51500;DHT22;39101;53.478;6.158;2022-10-23T07:56:25;11.40;99.90
51500;DHT22;39101;53.478;6.158;2022-10-23T07:58:52;11.50;99.90
51500;DHT22;39101;53.478;6.158;2022-10-23T08:03:50;11.50;99.90
51500;DHT22;39101;53.478;6.158;2022-10-23T08:06:15;11.50;99.90
51500;DHT22;39101;53.478;6.158;2022-10-23T08:08:41;11.60;99.90
51500;DHT22;39101;53.478;6.158;2022-10-23T08:11:11;11.60;99.90
51500;DHT22;39101;53.478;6.158;2022-10-23T08:13:37;11.60;99.90
51500;DHT22;39101;53.478;6.158;2022-10-23T08:16:03;11.60;99.90
51500;DHT22;39101;53.478;6.158;2022-10-23T08:18:29;11.60;99.90
51500;DHT22;39101;53.478;6.158;2022-10-23T08:21:00;11.60;99.90
51500;DHT22;39101;53.478;6.158;2022-10-23T08:23:27;11.60;99.90
51500;DHT22;39101;53.478;6.158;2022-10-23T08:26:01;11.60;99.90
51500;DHT22;39101;53.478;6.158;2022-10-23T08:28:27;11.70;99.90
51500;DHT22;39101;53.478;6.158;2022-10-23T08:30:54;11.80;99.90
51500;DHT22;39101;53.478;6.158;2022-10-23T08:33:20;11.70;99.90
51500;DHT22;39101;53.478;6.158;2022-10-23T08:35:46;11.70;99.90
51500;DHT22;39101;53.478;6.158;2022-10-23T08:38:11;11.80;99.90
51500;DHT22;39101;53.478;6.158;2022-10-23T08:40:37;11.80;99.90
51500;DHT22;39101;53.478;6.158;2022-10-23T08:43:17;11.80;99.90
51500;DHT22;39101;53.478;6.158;2022-10-23T08:45:55;11.90;99.90
51500;DHT22;39101;53.478;6.158;2022-10-23T08:54:03;12.00;99.90
51500;DHT22;39101;53.478;6.158;2022-10-23T08:56:35;12.00;99.90
51500;DHT22;39101;53.478;6.158;2022-10-23T09:02:01;12.10;99.90
51500;DHT22;39101;53.478;6.158;2022-10-23T09:04:28;12.10;99.90
51500;DHT22;39101;53.478;6.158;2022-10-23T09:07:04;12.10;99.90
51500;DHT22;39101;53.478;6.158;2022-10-23T09:09:49;12.10;99.90
51500;DHT22;39101;53.478;6.158;2022-10-23T09:12:23;12.30;99.90
51500;DHT22;39101;53.478;6.158;2022-10-23T09:17:52;12.30;99.90
51500;DHT22;39101;53.478;6.158;2022-10-23T09:20:25;12.40;99.90
51500;DHT22;39101;53.478;6.158;2022-10-23T09:22:57;12.30;99.90
51500;DHT22;39101;53.478;6.158;2022-10-23T09:25:26;12.40;99.90
51500;DHT22;39101;53.478;6.158;2022-10-23T09:27:55;12.40;99.90
51500;DHT22;39101;53.478;6.158;2022-10-23T09:33:00;12.50;99.90
51500;DHT22;39101;53.478;6.158;2022-10-23T09:35:36;12.60;99.90
51500;DHT22;39101;53.478;6.158;2022-10-23T09:38:02;12.60;99.90
51500;DHT22;39101;53.478;6.158;2022-10-23T09:40:42;12.60;99.90
51500;DHT22;39101;53.478;6.158;2022-10-23T09:43:14;12.60;99.90
51500;DHT22;39101;53.478;6.158;2022-10-23T09:45:40;12.70;99.90
51500;DHT22;39101;53.478;6.158;2022-10-23T09:48:17;12.70;99.90
51500;DHT22;39101;53.478;6.158;2022-10-23T09:50:58;12.80;99.90
51500;DHT22;39101;53.478;6.158;2022-10-23T09:53:33;12.90;99.90
51500;DHT22;39101;53.478;6.158;2022-10-23T09:56:03;13.00;99.90
51500;DHT22;39101;53.478;6.158;2022-10-23T09:58:32;12.90;99.90
51500;DHT22;39101;53.478;6.158;2022-10-23T10:00:58;13.00;99.90
51500;DHT22;39101;53.478;6.158;2022-10-23T10:03:24;13.10;99.90
51500;DHT22;39101;53.478;6.158;2022-10-23T10:06:01;13.10;99.90
51500;DHT22;39101;53.478;6.158;2022-10-23T10:08:36;13.10;99.90
51500;DHT22;39101;53.478;6.158;2022-10-23T10:16:48;13.00;99.90
51500;DHT22;39101;53.478;6.158;2022-10-23T10:19:30;13.00;99.90
51500;DHT22;39101;53.478;6.158;2022-10-23T10:30:22;13.10;99.90
51500;DHT22;39101;53.478;6.158;2022-10-23T10:33:27;13.20;99.90
51500;DHT22;39101;53.478;6.158;2022-10-23T10:36:01;13.20;99.90
51500;DHT22;39101;53.478;6.158;2022-10-23T10:38:49;13.30;99.90
51500;DHT22;39101;53.478;6.158;2022-10-23T10:41:42;13.20;99.90
51500;DHT22;39101;53.478;6.158;2022-10-23T10:47:03;13.40;99.90
51500;DHT22;39101;53.478;6.158;2022-10-23T10:49:48;13.40;99.90
51500;DHT22;39101;53.478;6.158;2022-10-23T10:58:23;13.50;99.90
51500;DHT22;39101;53.478;6.158;2022-10-23T11:00:55;13.50;99.90
51500;DHT22;39101;53.478;6.158;2022-10-23T11:06:15;13.60;99.90
51500;DHT22;39101;53.478;6.158;2022-10-23T11:08:43;13.60;99.90
51500;DHT22;39101;53.478;6.158;2022-10-23T11:11:19;13.60;99.90
51500;DHT22;39101;53.478;6.158;2022-10-23T11:13:49;13.70;99.90
51500;DHT22;39101;53.478;6.158;2022-10-23T11:16:34;13.70;99.90
51500;DHT22;39101;53.478;6.158;2022-10-23T11:19:05;13.70;99.90
51500;DHT22;39101;53.478;6.158;2022-10-23T11:22:20;13.80;99.90
51500;DHT22;39101;53.478;6.158;2022-10-23T11:24:35;13.80;99.90
51500;DHT22;39101;53.478;6.158;2022-10-23T11:38:34;13.90;99.90
51500;DHT22;39101;53.478;6.158;2022-10-23T11:41:15;13.90;99.90
51500;DHT22;39101;53.478;6.158;2022-10-23T11:43:52;14.00;99.90
51500;DHT22;39101;53.478;6.158;2022-10-23T11:48:50;14.00;99.90
51500;DHT22;39101;53.478;6.158;2022-10-23T11:56:37;14.20;99.90
51500;DHT22;39101;53.478;6.158;2022-10-23T11:59:30;14.20;99.90
51500;DHT22;39101;53.478;6.158;2022-10-23T12:01:59;14.20;99.90
51500;DHT22;39101;53.478;6.158;2022-10-23T12:05:08;14.30;99.90
51500;DHT22;39101;53.478;6.158;2022-10-23T12:07:53;14.30;99.90
51500;DHT22;39101;53.478;6.158;2022-10-23T12:10:30;14.30;99.90
51500;DHT22;39101;53.478;6.158;2022-10-23T12:13:00;14.40;99.90
51500;DHT22;39101;53.478;6.158;2022-10-23T12:15:28;14.40;99.90
51500;DHT22;39101;53.478;6.158;2022-10-23T12:18:07;14.40;99.90
51500;DHT22;39101;53.478;6.158;2022-10-23T12:20:51;14.50;99.90
51500;DHT22;39101;53.478;6.158;2022-10-23T12:40:16;14.70;99.90
51500;DHT22;39101;53.478;6.158;2022-10-23T12:42:49;14.60;99.90
51500;DHT22;39101;53.478;6.158;2022-10-23T12:45:22;14.70;99.90
51500;DHT22;39101;53.478;6.158;2022-10-23T12:47:49;14.70;99.90
51500;DHT22;39101;53.478;6.158;2022-10-23T12:53:01;14.70;99.90
51500;DHT22;39101;53.478;6.158;2022-10-23T12:55:30;14.70;99.90
51500;DHT22;39101;53.478;6.158;2022-10-23T12:57:57;14.80;99.90
51500;DHT22;39101;53.478;6.158;2022-10-23T13:00:23;14.70;99.90
51500;DHT22;39101;53.478;6.158;2022-10-23T13:03:03;14.70;99.90
51500;DHT22;39101;53.478;6.158;2022-10-23T13:05:29;14.80;99.90
51500;DHT22;39101;53.478;6.158;2022-10-23T13:07:57;14.80;99.90
51500;DHT22;39101;53.478;6.158;2022-10-23T13:10:24;14.80;99.90
51500;DHT22;39101;53.478;6.158;2022-10-23T13:13:01;14.80;99.90
51500;DHT22;39101;53.478;6.158;2022-10-23T13:15:37;14.80;99.90
51500;DHT22;39101;53.478;6.158;2022-10-23T13:18:04;14.80;99.90
51500;DHT22;39101;53.478;6.158;2022-10-23T13:20:34;14.80;99.90
51500;DHT22;39101;53.478;6.158;2022-10-23T13:26:00;14.80;99.90
51500;DHT22;39101;53.478;6.158;2022-10-23T13:28:30;14.80;99.90
51500;DHT22;39101;53.478;6.158;2022-10-23T13:31:06;14.80;99.90
51500;DHT22;39101;53.478;6.158;2022-10-23T13:34:13;14.80;99.90
51500;DHT22;39101;53.478;6.158;2022-10-23T13:36:33;14.80;99.90
51500;DHT22;39101;53.478;6.158;2022-10-23T13:41:37;14.80;99.90
51500;DHT22;39101;53.478;6.158;2022-10-23T13:44:03;14.80;99.90
51500;DHT22;39101;53.478;6.158;2022-10-23T13:46:29;14.80;99.90
51500;DHT22;39101;53.478;6.158;2022-10-23T13:48:55;14.80;99.90
51500;DHT22;39101;53.478;6.158;2022-10-23T13:51:21;14.80;99.90
51500;DHT22;39101;53.478;6.158;2022-10-23T13:53:48;14.80;99.90
51500;DHT22;39101;53.478;6.158;2022-10-23T13:56:17;14.80;99.90
51500;DHT22;39101;53.478;6.158;2022-10-23T13:58:42;14.80;99.90
51500;DHT22;39101;53.478;6.158;2022-10-23T14:01:28;14.80;99.90
51500;DHT22;39101;53.478;6.158;2022-10-23T14:03:56;14.80;99.90
51500;DHT22;39101;53.478;6.158;2022-10-23T14:06:22;14.80;99.90
51500;DHT22;39101;53.478;6.158;2022-10-23T14:08:48;14.80;99.90
51500;DHT22;39101;53.478;6.158;2022-10-23T14:11:15;14.80;99.90
51500;DHT22;39101;53.478;6.158;2022-10-23T14:13:42;14.80;99.90
51500;DHT22;39101;53.478;6.158;2022-10-23T14:16:10;14.80;99.90
51500;DHT22;39101;53.478;6.158;2022-10-23T14:18:36;14.80;99.90
51500;DHT22;39101;53.478;6.158;2022-10-23T14:21:06;14.80;99.90
51500;DHT22;39101;53.478;6.158;2022-10-23T14:23:32;14.80;99.90
51500;DHT22;39101;53.478;6.158;2022-10-23T14:26:06;14.80;99.90
51500;DHT22;39101;53.478;6.158;2022-10-23T14:28:32;14.80;99.90
51500;DHT22;39101;53.478;6.158;2022-10-23T14:31:03;14.80;99.90
51500;DHT22;39101;53.478;6.158;2022-10-23T14:33:29;14.80;99.90
51500;DHT22;39101;53.478;6.158;2022-10-23T14:35:54;14.80;99.90
51500;DHT22;39101;53.478;6.158;2022-10-23T14:38:20;14.80;99.90
51500;DHT22;39101;53.478;6.158;2022-10-23T14:40:46;14.80;99.90
51500;DHT22;39101;53.478;6.158;2022-10-23T14:43:11;14.80;99.90
51500;DHT22;39101;53.478;6.158;2022-10-23T14:45:37;14.80;99.90
51500;DHT22;39101;53.478;6.158;2022-10-23T14:48:03;14.80;99.90
51500;DHT22;39101;53.478;6.158;2022-10-23T14:50:30;14.80;99.90
51500;DHT22;39101;53.478;6.158;2022-10-23T14:52:56;14.80;99.90
51500;DHT22;39101;53.478;6.158;2022-10-23T14:55:22;14.70;99.90
51500;DHT22;39101;53.478;6.158;2022-10-23T14:57:48;14.70;99.90
51500;DHT22;39101;53.478;6.158;2022-10-23T15:00:18;14.70;99.90
51500;DHT22;39101;53.478;6.158;2022-10-23T15:02:44;14.70;99.90
51500;DHT22;39101;53.478;6.158;2022-10-23T15:05:09;14.80;99.90
51500;DHT22;39101;53.478;6.158;2022-10-23T15:07:35;14.80;99.90
51500;DHT22;39101;53.478;6.158;2022-10-23T15:10:02;14.70;99.90
51500;DHT22;39101;53.478;6.158;2022-10-23T15:12:28;14.70;99.90
51500;DHT22;39101;53.478;6.158;2022-10-23T15:14:53;14.70;99.90
51500;DHT22;39101;53.478;6.158;2022-10-23T15:17:19;14.70;99.90
51500;DHT22;39101;53.478;6.158;2022-10-23T15:19:45;14.70;99.90
51500;DHT22;39101;53.478;6.158;2022-10-23T15:22:11;14.70;99.90
51500;DHT22;39101;53.478;6.158;2022-10-23T15:24:37;14.70;99.90
51500;DHT22;39101;53.478;6.158;2022-10-23T15:27:02;14.80;99.90
51500;DHT22;39101;53.478;6.158;2022-10-23T15:29:28;14.80;99.90
51500;DHT22;39101;53.478;6.158;2022-10-23T15:31:57;14.80;99.90
51500;DHT22;39101;53.478;6.158;2022-10-23T15:34:25;14.80;99.90
51500;DHT22;39101;53.478;6.158;2022-10-23T15:36:52;14.70;99.90
51500;DHT22;39101;53.478;6.158;2022-10-23T15:39:21;14.70;99.90
51500;DHT22;39101;53.478;6.158;2022-10-23T15:41:50;14.80;99.90
51500;DHT22;39101;53.478;6.158;2022-10-23T15:44:18;14.80;99.90
51500;DHT22;39101;53.478;6.158;2022-10-23T15:46:44;14.80;99.90
51500;DHT22;39101;53.478;6.158;2022-10-23T15:49:10;14.80;99.90
51500;DHT22;39101;53.478;6.158;2022-10-23T15:51:37;14.80;99.90
51500;DHT22;39101;53.478;6.158;2022-10-23T15:54:08;14.70;99.90
51500;DHT22;39101;53.478;6.158;2022-10-23T15:56:35;14.70;99.90
51500;DHT22;39101;53.478;6.158;2022-10-23T15:59:01;14.70;99.90
51500;DHT22;39101;53.478;6.158;2022-10-23T16:01:27;14.60;99.90
51500;DHT22;39101;53.478;6.158;2022-10-23T16:03:53;14.60;99.90
51500;DHT22;39101;53.478;6.158;2022-10-23T16:06:19;14.60;99.90
51500;DHT22;39101;53.478;6.158;2022-10-23T16:08:45;14.60;99.90
51500;DHT22;39101;53.478;6.158;2022-10-23T16:11:22;14.60;99.90
51500;DHT22;39101;53.478;6.158;2022-10-23T16:13:48;14.60;99.90
51500;DHT22;39101;53.478;6.158;2022-10-23T16:16:15;14.60;99.90
51500;DHT22;39101;53.478;6.158;2022-10-23T16:18:41;14.60;99.90
51500;DHT22;39101;53.478;6.158;2022-10-23T16:21:18;14.50;99.90
51500;DHT22;39101;53.478;6.158;2022-10-23T16:23:44;14.50;99.90
51500;DHT22;39101;53.478;6.158;2022-10-23T16:26:10;14.40;99.90
51500;DHT22;39101;53.478;6.158;2022-10-23T16:28:36;14.40;99.90
51500;DHT22;39101;53.478;6.158;2022-10-23T16:31:07;14.40;99.90
51500;DHT22;39101;53.478;6.158;2022-10-23T16:33:33;14.40;99.90
51500;DHT22;39101;53.478;6.158;2022-10-23T16:36:03;14.40;99.90
51500;DHT22;39101;53.478;6.158;2022-10-23T16:38:29;14.30;99.90
51500;DHT22;39101;53.478;6.158;2022-10-23T16:40:55;14.40;99.90
51500;DHT22;39101;53.478;6.158;2022-10-23T16:43:21;14.40;99.90
51500;DHT22;39101;53.478;6.158;2022-10-23T16:45:46;14.30;99.90
51500;DHT22;39101;53.478;6.158;2022-10-23T16:48:12;14.30;99.90
51500;DHT22;39101;53.478;6.158;2022-10-23T16:50:39;14.30;99.90
51500;DHT22;39101;53.478;6.158;2022-10-23T16:53:05;14.30;99.90
51500;DHT22;39101;53.478;6.158;2022-10-23T16:55:31;14.30;99.90
51500;DHT22;39101;53.478;6.158;2022-10-23T16:57:57;14.20;99.90
51500;DHT22;39101;53.478;6.158;2022-10-23T17:00:25;14.20;99.90
51500;DHT22;39101;53.478;6.158;2022-10-23T17:03:02;14.30;99.90
51500;DHT22;39101;53.478;6.158;2022-10-23T17:05:32;14.20;99.90
51500;DHT22;39101;53.478;6.158;2022-10-23T17:07:58;14.20;99.90
51500;DHT22;39101;53.478;6.158;2022-10-23T17:10:23;14.20;99.90
51500;DHT22;39101;53.478;6.158;2022-10-23T17:12:49;14.30;99.90
51500;DHT22;39101;53.478;6.158;2022-10-23T17:15:15;14.20;99.90
51500;DHT22;39101;53.478;6.158;2022-10-23T17:17:41;14.20;99.90
51500;DHT22;39101;53.478;6.158;2022-10-23T17:20:07;14.20;99.90
51500;DHT22;39101;53.478;6.158;2022-10-23T17:22:33;14.10;99.90
51500;DHT22;39101;53.478;6.158;2022-10-23T17:25:00;14.20;99.90
51500;DHT22;39101;53.478;6.158;2022-10-23T17:27:26;14.10;99.90
51500;DHT22;39101;53.478;6.158;2022-10-23T17:29:51;14.20;99.90
51500;DHT22;39101;53.478;6.158;2022-10-23T17:32:17;14.20;99.90